Round Lake, NY (12151)

6:05 AM EDT on March 28, 2015 (GMT -0400)
Country Knolls | | Change Station
CLOSE
Current Station
Personal Weather Station
Location: Ballston Lake, NY
Elevation: 302 ft
Nearby Weather Stations
Active Advisory: Special Statement

Elev 302 ft 42.90 °N, 73.80 °W | Updated 9 seconds ago

Snow
Snow
26.7 °F
Feels Like 27 °F
N
0.0
Wind Variable Wind from WNW
Gusts 3.0 mph

Today
High -- | Low -- °F
--% Chance of Precip.
Yesterday
High -- | Low -- °F
Precip. -- in
6:44 AM 7:16 PM
First Quarter, 61% visible
Pressure 29.86 in
Visibility 8.0 miles
Clouds Overcast 2100 ft
Windchill 27 °F
Dew Point 24 °F
Humidity 88%
Rainfall 0.00 in
Snow Depth Not available.
UV 0 out of 12
Pollen 1.50 out of 12
Air Quality Not available.
Flu Activity Not available.
METAR KALB 280951Z 30007KT 8SM -SN OVC021 M02/M06 A2985 RMK AO2 SLP110 OCNL DRSN P0000 T10221061

More Conditions Fewer Conditions

Pressure 29.86 in
Visibility 8.0 miles
Clouds Overcast 2100 ft
Windchill 27 °F
Dew Point 24 °F
Humidity 88%
Rainfall 0.00 in
Snow Depth Not available.
UV 0 out of 12
Pollen 1.50 out of 12
Air Quality Not available.
Flu Activity Not available.
METAR KALB 280951Z 30007KT 8SM -SN OVC021 M02/M06 A2985 RMK AO2 SLP110 OCNL DRSN P0000 T10221061

More Conditions Fewer Conditions

10-Day Weather Forecast

Almanac

Astronomy

Mar. 28, 2015 Rise Set
Actual Time
Civil Twilight
Nautical Twilight
Astronomical Twilight
Moon
Length of Visible Light
Length of Day
Tomorrow will be .
, % of the Moon is Illuminated

Today's Extremes

State Highs State Lows

Community

WunderPhotos

Upload Photos

1,808,945 photos uploaded!

WunderBlogs® & News

Nearby

Air Quality

  Air Quality AQ Index Pollutant
Not available.

Snow Depth

Station Depth Elevation

Earthquake Activity

City Distance Mag. Time & Date
Minimum magnitude displayed is 2.5.

Coastal Water Temperatures

Place Temperature

Stations

Nearby Weather Stations

Station Location Temp. Windchill Dew Point Humidity Wind Precip. Elev Updated Type
                   
Special Statement
Statement as of 4:35 AM EDT on March 28, 2015

... Persistent areas of light snow and possible black ice will
make for a slick start to the day across Saratoga... eastern
Schenectady... northeast Albany and Rensselaer counties through
700 am...

Light snow will likely produce a little more light
accumulation... generally an inch or less in this area through 700
am. However... snow that has already fallen on roadways which has
partially melted... could turn to black ice. Black ice is even more
likely on sidewalks and walkways.

If you are traveling in this area by car or especially by
foot... exercise caution and allow a little extra time to reach
your destination.


Hwjiv